createdAt,value
2023-04-17T00:02:45.281Z,95873.00
2023-04-17T00:08:13.411Z,95879.00
2023-04-17T00:13:41.409Z,95878.00
2023-04-17T00:19:09.448Z,95869.00
2023-04-17T00:24:37.392Z,95870.00
2023-04-17T00:30:06.680Z,95860.00
2023-04-17T00:35:34.848Z,95867.00
2023-04-17T00:41:02.639Z,95868.00
2023-04-17T00:46:31.627Z,95870.00
2023-04-17T00:51:59.811Z,95874.00
2023-04-17T00:57:27.860Z,95863.00
2023-04-17T01:02:58.379Z,95858.00
2023-04-17T01:08:26.829Z,95855.00
2023-04-17T01:13:54.901Z,95854.00
2023-04-17T01:19:23.654Z,95849.00
2023-04-17T01:24:51.620Z,95851.00
2023-04-17T01:30:20.039Z,95843.00
2023-04-17T01:36:10.695Z,95853.00
2023-04-17T01:41:38.792Z,95857.00
2023-04-17T01:47:06.672Z,95868.00
2023-04-17T01:52:34.959Z,95869.00
2023-04-17T01:58:02.757Z,95864.00
2023-04-17T02:03:34.834Z,95867.00
2023-04-17T02:09:04.002Z,95872.00
2023-04-17T02:14:31.956Z,95864.00
2023-04-17T02:19:59.743Z,95862.00
2023-04-17T02:25:28.951Z,95853.00
2023-04-17T02:30:56.892Z,95858.00
2023-04-17T02:36:24.849Z,95847.00
2023-04-17T02:41:53.102Z,95852.00
2023-04-17T02:47:21.098Z,95857.00
2023-04-17T02:52:49.061Z,95847.00
2023-04-17T02:58:16.954Z,95853.00
2023-04-17T03:03:45.262Z,95847.00
2023-04-17T03:09:18.226Z,95843.00
2023-04-17T03:14:46.341Z,95858.00
2023-04-17T03:20:16.000Z,95842.00
2023-04-17T03:25:44.008Z,95856.00
2023-04-17T03:31:13.251Z,95847.00
2023-04-17T03:36:42.158Z,95854.00
2023-04-17T03:42:14.715Z,95859.00
2023-04-17T03:47:42.841Z,95864.00
2023-04-17T03:53:10.992Z,95871.00
2023-04-17T03:58:39.956Z,95867.00
2023-04-17T04:04:10.881Z,95863.00
2023-04-17T04:09:39.073Z,95871.00
2023-04-17T04:15:08.949Z,95877.00
2023-04-17T04:20:37.634Z,95871.00
2023-04-17T04:26:16.978Z,95878.00
2023-04-17T04:31:51.150Z,95875.00
2023-04-17T04:37:30.253Z,95885.00
2023-04-17T04:43:03.037Z,95877.00
2023-04-17T04:48:37.350Z,95877.00
2023-04-17T04:54:06.090Z,95885.00
2023-04-17T04:59:39.979Z,95875.00
2023-04-17T05:05:28.088Z,95887.00
2023-04-17T05:10:57.053Z,95890.00
2023-04-17T05:16:25.595Z,95892.00
2023-04-17T05:21:53.812Z,95897.00
2023-04-17T05:27:23.195Z,95898.00
2023-04-17T05:32:51.961Z,95904.00
2023-04-17T05:38:49.281Z,95905.00
2023-04-17T05:44:19.652Z,95918.00
2023-04-17T05:49:51.220Z,95927.00
2023-04-17T05:55:20.386Z,95923.00
2023-04-17T06:00:52.535Z,95925.00
2023-04-17T06:06:21.002Z,95937.00
2023-04-17T06:11:48.846Z,95935.00
2023-04-17T06:17:17.233Z,95934.00
2023-04-17T06:22:46.932Z,95936.00
2023-04-17T06:28:14.758Z,95930.00
2023-04-17T06:33:43.717Z,95934.00
2023-04-17T06:39:11.786Z,95943.00
2023-04-17T06:44:39.899Z,95941.00
2023-04-17T06:50:13.759Z,95953.00
2023-04-17T06:55:41.654Z,95940.00
2023-04-17T07:01:12.606Z,95950.00
2023-04-17T07:06:40.953Z,95962.00
2023-04-17T07:12:08.966Z,95956.00
2023-04-17T07:17:37.024Z,95958.00
2023-04-17T07:23:04.864Z,95974.00
2023-04-17T07:28:32.605Z,95971.00
2023-04-17T07:34:00.831Z,95957.00
2023-04-17T07:39:31.633Z,95963.00
2023-04-17T07:44:59.516Z,95983.00
2023-04-17T07:50:27.502Z,95988.00
2023-04-17T07:55:58.044Z,95989.00
2023-04-17T08:01:26.507Z,96001.00
2023-04-17T08:06:54.458Z,95991.00
2023-04-17T08:12:22.239Z,95995.00
2023-04-17T08:17:50.430Z,95997.00
2023-04-17T08:23:18.298Z,95998.00
2023-04-17T08:28:47.117Z,96005.00
2023-04-17T08:34:16.219Z,96019.00
2023-04-17T08:39:43.973Z,96009.00
2023-04-17T08:45:13.780Z,96009.00
2023-04-17T08:50:45.963Z,96007.00
2023-04-17T08:56:13.815Z,96011.00
2023-04-17T09:02:07.394Z,96015.00
2023-04-17T09:07:35.672Z,96016.00
2023-04-17T09:13:03.739Z,96007.00
2023-04-17T09:18:33.111Z,96013.00
2023-04-17T09:24:01.130Z,96007.00
2023-04-17T09:29:28.926Z,96008.00
2023-04-17T09:35:00.284Z,96016.00
2023-04-17T09:40:41.337Z,96014.00
2023-04-17T09:46:09.256Z,96013.00
2023-04-17T09:51:37.880Z,96016.00
2023-04-17T09:57:10.970Z,96013.00
2023-04-17T10:02:40.380Z,96018.00
2023-04-17T10:08:08.361Z,96006.00
2023-04-17T10:13:40.632Z,96009.00
2023-04-17T10:19:32.197Z,95996.00
2023-04-17T10:25:20.678Z,96001.00
2023-04-17T10:30:56.352Z,95996.00
2023-04-17T10:36:39.743Z,96004.00
2023-04-17T10:42:08.069Z,96003.00
2023-04-17T10:47:36.208Z,96005.00
2023-04-17T10:53:04.972Z,96007.00
2023-04-17T10:58:32.978Z,95997.00
2023-04-17T11:04:01.530Z,95997.00
2023-04-17T11:09:29.814Z,95984.00
2023-04-17T11:15:04.449Z,95987.00
2023-04-17T11:20:37.932Z,95983.00
2023-04-17T11:26:13.988Z,95982.00
2023-04-17T11:31:48.793Z,95972.00
2023-04-17T11:37:19.978Z,95976.00
2023-04-17T11:42:49.595Z,95978.00
2023-04-17T11:48:24.675Z,95979.00
2023-04-17T11:53:52.550Z,95975.00
2023-04-17T11:59:33.964Z,95966.00
2023-04-17T12:05:20.460Z,95973.00
2023-04-17T12:10:48.463Z,95970.00
2023-04-17T12:16:16.260Z,95963.00
2023-04-17T12:21:44.148Z,95960.00
2023-04-17T12:27:11.988Z,95964.00
2023-04-17T12:32:39.951Z,95953.00
2023-04-17T12:38:07.799Z,95954.00
2023-04-17T12:43:35.837Z,95941.00
2023-04-17T12:49:03.645Z,95945.00
2023-04-17T12:54:33.253Z,95947.00
2023-04-17T13:00:01.641Z,95948.00
2023-04-17T13:05:30.494Z,95940.00
2023-04-17T13:10:59.909Z,95927.00
2023-04-17T13:16:27.770Z,95930.00
2023-04-17T13:21:55.591Z,95930.00
2023-04-17T13:27:23.453Z,95917.00
2023-04-17T13:32:51.462Z,95919.00
2023-04-17T13:38:19.855Z,95914.00
2023-04-17T13:43:47.776Z,95909.00
2023-04-17T13:49:15.757Z,95912.00
2023-04-17T13:54:43.533Z,95912.00
2023-04-17T14:00:12.325Z,95910.00
2023-04-17T14:05:40.060Z,95907.00
2023-04-17T14:11:07.930Z,95905.00
2023-04-17T14:16:36.270Z,95896.00
2023-04-17T14:22:04.151Z,95878.00
2023-04-17T14:27:31.969Z,95895.00
2023-04-17T14:33:00.850Z,95898.00
2023-04-17T14:38:28.788Z,95893.00
2023-04-17T14:43:58.089Z,95889.00
2023-04-17T14:49:25.959Z,95898.00
2023-04-17T14:54:53.736Z,95931.00
2023-04-17T15:00:21.921Z,95913.00
2023-04-17T15:05:49.974Z,95887.00
2023-04-17T15:11:17.866Z,95886.00
2023-04-17T15:16:45.760Z,95884.00
2023-04-17T15:22:13.686Z,95884.00
2023-04-17T15:27:41.454Z,95890.00
2023-04-17T15:33:10.396Z,95899.00
2023-04-17T15:38:38.406Z,95890.00
2023-04-17T15:44:06.533Z,95886.00
2023-04-17T15:49:34.392Z,95876.00
2023-04-17T15:55:02.182Z,95880.00
2023-04-17T16:00:30.051Z,95879.00
2023-04-17T16:05:57.939Z,95879.00
2023-04-17T16:11:25.950Z,95893.00
2023-04-17T16:16:53.848Z,95894.00
2023-04-17T16:22:21.819Z,95895.00
2023-04-17T16:27:49.965Z,95898.00
2023-04-17T16:33:19.216Z,95896.00
2023-04-17T16:38:50.496Z,95897.00
2023-04-17T16:44:21.908Z,95892.00
2023-04-17T16:49:50.135Z,95895.00
2023-04-17T16:55:19.090Z,95895.00
2023-04-17T17:01:13.291Z,95893.00
2023-04-17T17:06:41.848Z,95904.00
2023-04-17T17:12:14.607Z,95908.00
2023-04-17T17:18:08.237Z,95916.00
2023-04-17T17:23:40.770Z,95913.00
2023-04-17T17:29:13.565Z,95909.00
2023-04-17T17:34:48.197Z,95915.00
2023-04-17T17:40:16.369Z,95918.00
2023-04-17T17:45:44.650Z,95924.00
2023-04-17T17:51:14.884Z,95929.00
2023-04-17T17:56:44.861Z,95923.00
2023-04-17T18:02:13.101Z,95917.00
2023-04-17T18:07:44.607Z,95926.00
2023-04-17T18:13:13.548Z,95929.00
2023-04-17T18:18:41.549Z,95940.00
2023-04-17T18:24:14.507Z,95938.00
2023-04-17T18:29:49.088Z,95939.00
2023-04-17T18:35:22.294Z,95937.00
2023-04-17T18:40:57.492Z,95947.00
2023-04-17T18:46:54.087Z,95954.00
2023-04-17T18:52:21.970Z,95958.00
2023-04-17T18:57:50.992Z,95946.00
2023-04-17T19:03:18.870Z,95957.00
2023-04-17T19:08:46.688Z,95951.00
2023-04-17T19:14:14.741Z,95952.00
2023-04-17T19:19:43.191Z,95954.00
2023-04-17T19:25:13.131Z,95951.00
2023-04-17T19:30:41.034Z,95945.00
2023-04-17T19:36:09.042Z,95949.00
2023-04-17T19:41:37.794Z,95957.00
2023-04-17T19:47:06.022Z,95954.00
2023-04-17T19:52:34.083Z,95952.00
2023-04-17T19:58:02.384Z,95951.00
2023-04-17T20:03:32.646Z,95942.00
2023-04-17T20:09:03.333Z,95942.00
2023-04-17T20:14:31.898Z,95936.00
2023-04-17T20:19:59.909Z,95927.00
2023-04-17T20:25:28.239Z,95943.00
2023-04-17T20:30:56.490Z,95946.00
2023-04-17T20:36:24.787Z,95938.00
2023-04-17T20:41:52.896Z,95934.00
2023-04-17T20:47:21.186Z,95945.00
2023-04-17T20:52:49.145Z,95942.00
2023-04-17T20:58:17.294Z,95925.00
2023-04-17T21:03:45.462Z,95933.00
2023-04-17T21:09:16.536Z,95935.00
2023-04-17T21:14:44.806Z,95930.00
2023-04-17T21:20:13.919Z,95923.00
2023-04-17T21:25:42.268Z,95924.00
2023-04-17T21:31:14.949Z,95921.00
2023-04-17T21:36:43.242Z,95930.00
2023-04-17T21:42:11.514Z,95925.00
2023-04-17T21:47:39.575Z,95926.00
2023-04-17T21:53:09.325Z,95918.00
2023-04-17T21:58:37.252Z,95925.00
2023-04-17T22:04:05.332Z,95931.00
2023-04-17T22:09:33.423Z,95924.00
2023-04-17T22:15:02.317Z,95916.00
2023-04-17T22:20:30.564Z,95919.00
2023-04-17T22:26:02.156Z,95919.00
2023-04-17T22:31:30.622Z,95924.00
2023-04-17T22:36:58.865Z,95930.00
2023-04-17T22:42:27.056Z,95916.00
2023-04-17T22:47:55.237Z,95916.00
2023-04-17T22:53:23.644Z,95916.00
2023-04-17T22:58:51.979Z,95914.00
2023-04-17T23:04:22.957Z,95896.00
2023-04-17T23:09:51.051Z,95909.00
2023-04-17T23:15:18.987Z,95914.00
2023-04-17T23:20:47.515Z,95920.00
2023-04-17T23:26:16.798Z,95916.00
2023-04-17T23:31:45.748Z,95914.00
2023-04-17T23:37:13.702Z,95905.00
2023-04-17T23:42:41.732Z,95904.00
2023-04-17T23:48:09.955Z,95899.00
2023-04-17T23:53:37.924Z,95897.00
2023-04-17T23:59:05.971Z,95891.00
